createdAt,value
2023-02-28T00:00:11.497Z,1.33
2023-02-28T00:02:38.846Z,1.55
2023-02-28T00:05:05.999Z,1.40
2023-02-28T00:07:32.806Z,1.63
2023-02-28T00:09:59.537Z,1.35
2023-02-28T00:12:25.846Z,1.35
2023-02-28T00:14:52.319Z,1.70
2023-02-28T00:17:18.862Z,1.85
2023-02-28T00:19:45.222Z,1.23
2023-02-28T00:22:11.579Z,1.83
2023-02-28T00:24:37.947Z,1.80
2023-02-28T00:27:04.344Z,1.45
2023-02-28T00:29:30.709Z,1.60
2023-02-28T00:31:57.137Z,1.27
2023-02-28T00:34:23.541Z,1.40
2023-02-28T00:36:49.955Z,1.55
2023-02-28T00:39:16.711Z,1.70
2023-02-28T00:41:43.105Z,1.40
2023-02-28T00:44:09.797Z,1.63
2023-02-28T00:46:36.190Z,1.90
2023-02-28T00:49:02.517Z,1.33
2023-02-28T00:51:29.235Z,1.55
2023-02-28T00:53:55.931Z,1.50
2023-02-28T00:56:22.325Z,1.80
2023-02-28T00:58:48.644Z,0.85
2023-02-28T01:01:15.056Z,1.70
2023-02-28T01:03:41.531Z,1.17
2023-02-28T01:06:08.020Z,1.17
2023-02-28T01:08:34.410Z,1.38
2023-02-28T01:11:08.515Z,1.10
2023-02-28T01:13:34.823Z,1.33
2023-02-28T01:16:01.210Z,1.50
2023-02-28T01:18:27.929Z,1.50
2023-02-28T01:20:54.363Z,1.40
2023-02-28T01:23:22.574Z,1.33
2023-02-28T01:25:49.101Z,1.30
2023-02-28T01:28:15.429Z,1.45
2023-02-28T01:30:41.758Z,1.10
2023-02-28T01:33:08.130Z,1.13
2023-02-28T01:35:35.302Z,1.35
2023-02-28T01:38:15.777Z,1.40
2023-02-28T01:40:47.496Z,1.38
2023-02-28T01:43:20.286Z,1.33
2023-02-28T01:45:46.659Z,1.65
2023-02-28T01:48:13.682Z,1.23
2023-02-28T01:50:42.444Z,1.60
2023-02-28T01:53:11.086Z,1.42
2023-02-28T01:55:38.134Z,1.40
2023-02-28T01:58:07.125Z,1.20
2023-02-28T02:00:33.805Z,1.25
2023-02-28T02:03:01.711Z,1.30
2023-02-28T02:05:32.065Z,1.50
2023-02-28T02:08:02.237Z,1.55
2023-02-28T02:10:43.347Z,1.75
2023-02-28T02:13:28.266Z,1.55
2023-02-28T02:16:09.782Z,1.50
2023-02-28T02:18:39.202Z,1.30
2023-02-28T02:21:05.519Z,1.40
2023-02-28T02:23:43.793Z,1.50
2023-02-28T02:26:22.302Z,1.77
2023-02-28T02:29:03.103Z,1.42
2023-02-28T02:31:48.135Z,1.38
2023-02-28T02:34:32.801Z,1.95
2023-02-28T02:37:17.512Z,1.23
2023-02-28T02:39:53.810Z,1.98
2023-02-28T02:42:28.380Z,1.70
2023-02-28T02:45:03.090Z,1.83
2023-02-28T02:47:31.550Z,1.65
2023-02-28T02:50:00.526Z,1.60
2023-02-28T02:52:31.161Z,1.73
2023-02-28T02:54:58.800Z,1.80
2023-02-28T02:57:34.817Z,1.80
2023-02-28T03:00:02.459Z,1.70
2023-02-28T03:02:29.413Z,1.52
2023-02-28T03:05:01.547Z,1.83
2023-02-28T03:07:28.411Z,1.83
2023-02-28T03:09:56.045Z,1.92
2023-02-28T03:12:24.494Z,1.95
2023-02-28T03:15:01.447Z,1.65
2023-02-28T03:17:30.657Z,2.30
2023-02-28T03:20:08.456Z,1.77
2023-02-28T03:22:54.230Z,1.92
2023-02-28T03:25:46.987Z,1.58
2023-02-28T03:28:18.780Z,1.92
2023-02-28T03:30:58.794Z,1.52
2023-02-28T03:33:34.628Z,2.00
2023-02-28T03:38:37.084Z,1.85
2023-02-28T03:41:10.560Z,2.25
2023-02-28T03:43:39.353Z,2.20
2023-02-28T03:46:07.686Z,2.03
2023-02-28T03:48:39.552Z,1.92
2023-02-28T03:51:08.516Z,1.77
2023-02-28T03:53:37.009Z,2.10
2023-02-28T03:56:03.367Z,2.05
2023-02-28T03:58:41.936Z,2.35
2023-02-28T04:01:19.024Z,1.73
2023-02-28T04:03:45.585Z,1.80
2023-02-28T04:06:16.754Z,2.00
2023-02-28T04:08:43.167Z,2.28
2023-02-28T04:11:17.563Z,2.08
2023-02-28T04:13:45.571Z,2.20
2023-02-28T04:16:18.726Z,1.95
2023-02-28T04:18:51.037Z,2.47
2023-02-28T04:21:21.556Z,2.10
2023-02-28T04:23:47.956Z,1.90
2023-02-28T04:26:14.286Z,2.83
2023-02-28T04:28:40.629Z,2.65
2023-02-28T04:31:06.998Z,2.17
2023-02-28T04:33:33.637Z,2.20
2023-02-28T04:36:04.157Z,2.38
2023-02-28T04:38:33.974Z,2.20
2023-02-28T04:41:00.873Z,2.53
2023-02-28T04:43:28.321Z,2.90
2023-02-28T04:45:57.618Z,2.30
2023-02-28T04:48:24.892Z,1.83
2023-02-28T04:50:51.637Z,2.00
2023-02-28T04:53:18.253Z,2.30
2023-02-28T04:55:44.975Z,2.25
2023-02-28T04:58:11.537Z,2.60
2023-02-28T05:00:37.871Z,2.53
2023-02-28T05:03:04.258Z,2.38
2023-02-28T05:05:30.734Z,2.40
2023-02-28T05:07:57.311Z,2.50
2023-02-28T05:10:24.133Z,2.63
2023-02-28T05:12:50.630Z,2.20
2023-02-28T05:15:17.529Z,3.35
2023-02-28T05:17:44.283Z,3.05
2023-02-28T05:20:15.608Z,2.72
2023-02-28T05:22:42.581Z,2.75
2023-02-28T05:25:12.443Z,2.83
2023-02-28T05:27:38.973Z,2.67
2023-02-28T05:30:07.044Z,2.75
2023-02-28T05:32:33.462Z,2.83
2023-02-28T05:34:59.798Z,2.83
2023-02-28T05:37:26.155Z,2.42
2023-02-28T05:39:52.570Z,3.17
2023-02-28T05:42:19.159Z,2.58
2023-02-28T05:44:45.669Z,2.60
2023-02-28T05:47:13.696Z,2.45
2023-02-28T05:49:40.000Z,2.97
2023-02-28T05:52:06.472Z,2.92
2023-02-28T05:54:32.935Z,3.10
2023-02-28T05:56:59.288Z,2.75
2023-02-28T05:59:25.652Z,2.70
2023-02-28T06:01:53.978Z,3.53
2023-02-28T06:04:31.473Z,3.40
2023-02-28T06:06:58.901Z,3.35
2023-02-28T06:09:25.992Z,3.33
2023-02-28T06:11:52.326Z,3.08
2023-02-28T06:14:19.799Z,3.20
2023-02-28T06:16:46.381Z,3.28
2023-02-28T06:19:13.171Z,3.40
2023-02-28T06:21:39.657Z,3.50
2023-02-28T06:24:06.150Z,3.70
2023-02-28T06:26:32.617Z,3.88
2023-02-28T06:28:58.997Z,3.33
2023-02-28T06:31:27.039Z,3.38
2023-02-28T06:33:53.495Z,3.60
2023-02-28T06:36:20.063Z,2.90
2023-02-28T06:38:46.761Z,3.65
2023-02-28T06:41:13.132Z,3.35
2023-02-28T06:43:41.551Z,3.55
2023-02-28T06:46:09.479Z,3.85
2023-02-28T06:48:36.162Z,4.47
2023-02-28T06:51:10.869Z,4.00
2023-02-28T06:53:37.493Z,3.88
2023-02-28T06:56:07.935Z,3.50
2023-02-28T06:58:35.015Z,3.20
2023-02-28T07:01:01.353Z,3.08
2023-02-28T07:03:27.835Z,2.85
2023-02-28T07:05:54.260Z,2.83
2023-02-28T07:08:20.774Z,2.90
2023-02-28T07:10:47.244Z,2.47
2023-02-28T07:13:13.709Z,2.50
2023-02-28T07:15:43.002Z,2.28
2023-02-28T07:18:10.376Z,1.60
2023-02-28T07:20:36.817Z,1.70
2023-02-28T07:23:03.395Z,1.67
2023-02-28T07:25:30.021Z,1.88
2023-02-28T07:27:57.330Z,1.75
2023-02-28T07:30:23.644Z,1.70
2023-02-28T07:32:49.962Z,1.75
2023-02-28T07:35:16.372Z,1.60
2023-02-28T07:37:43.082Z,1.60
2023-02-28T07:40:11.725Z,1.88
2023-02-28T07:42:38.866Z,1.90
2023-02-28T07:45:07.065Z,1.90
2023-02-28T07:47:33.399Z,1.70
2023-02-28T07:50:00.181Z,2.00
2023-02-28T07:52:26.573Z,1.80
2023-02-28T07:54:52.878Z,1.70
2023-02-28T07:57:19.326Z,1.50
2023-02-28T07:59:46.203Z,1.58
2023-02-28T08:02:16.534Z,1.60
2023-02-28T08:04:43.273Z,1.65
2023-02-28T08:07:14.074Z,1.77
2023-02-28T08:09:40.834Z,1.80
2023-02-28T08:12:08.369Z,1.60
2023-02-28T08:14:35.016Z,1.83
2023-02-28T08:17:01.599Z,1.80
2023-02-28T08:19:28.293Z,1.85
2023-02-28T08:21:55.113Z,1.85
2023-02-28T08:24:21.488Z,1.88
2023-02-28T08:26:47.947Z,2.22
2023-02-28T08:29:14.289Z,2.00
2023-02-28T08:31:40.778Z,0.85
2023-02-28T08:34:07.711Z,1.60
2023-02-28T08:36:34.226Z,1.70
2023-02-28T08:39:00.764Z,1.70
2023-02-28T08:41:27.449Z,1.63
2023-02-28T08:43:54.690Z,1.58
2023-02-28T08:46:21.359Z,1.70
2023-02-28T08:48:47.720Z,1.90
2023-02-28T08:51:17.430Z,1.90
2023-02-28T08:53:43.793Z,1.48
2023-02-28T08:56:12.023Z,1.73
2023-02-28T08:58:38.504Z,1.70
2023-02-28T09:01:08.892Z,1.60
2023-02-28T09:03:35.325Z,1.90
2023-02-28T09:06:02.458Z,1.73
2023-02-28T09:08:31.190Z,1.58
2023-02-28T09:10:58.915Z,1.58
2023-02-28T09:13:28.404Z,1.88
2023-02-28T09:15:55.072Z,1.75
2023-02-28T09:18:21.575Z,2.00
2023-02-28T09:20:47.942Z,1.65
2023-02-28T09:23:14.396Z,1.90
2023-02-28T09:25:51.106Z,1.35
2023-02-28T09:28:17.806Z,1.40
2023-02-28T09:30:49.227Z,1.60
2023-02-28T09:33:16.237Z,1.60
2023-02-28T09:35:43.807Z,1.55
2023-02-28T09:38:10.760Z,1.50
2023-02-28T09:40:56.965Z,1.60
2023-02-28T09:43:26.286Z,1.67
2023-02-28T09:45:59.591Z,1.42
2023-02-28T09:48:28.923Z,1.58
2023-02-28T09:51:05.922Z,1.67
2023-02-28T09:53:36.683Z,1.67
2023-02-28T09:56:03.108Z,1.98
2023-02-28T09:58:32.776Z,1.70
2023-02-28T10:01:02.615Z,2.20
2023-02-28T10:03:28.999Z,2.53
2023-02-28T10:05:55.419Z,1.90
2023-02-28T10:08:27.761Z,2.30
2023-02-28T10:10:59.086Z,2.10
2023-02-28T10:13:25.562Z,2.17
2023-02-28T10:15:57.888Z,2.08
2023-02-28T10:18:26.884Z,1.50
2023-02-28T10:20:54.460Z,1.65
2023-02-28T10:23:28.546Z,1.90
2023-02-28T10:25:59.850Z,1.88
2023-02-28T10:28:27.227Z,1.48
2023-02-28T10:30:54.627Z,1.52
2023-02-28T10:33:37.182Z,1.20
2023-02-28T10:36:04.468Z,1.23
2023-02-28T10:38:38.501Z,1.30
2023-02-28T10:41:07.895Z,1.67
2023-02-28T10:43:34.279Z,1.30
2023-02-28T10:46:09.778Z,0.90
2023-02-28T10:49:00.983Z,1.30
2023-02-28T10:51:35.198Z,1.40
2023-02-28T10:54:02.506Z,1.45
2023-02-28T10:56:29.343Z,1.45
2023-02-28T10:58:58.881Z,1.25
2023-02-28T11:01:35.066Z,1.25
2023-02-28T11:04:02.083Z,1.15
2023-02-28T11:06:33.023Z,1.58
2023-02-28T11:09:00.542Z,1.35
2023-02-28T11:11:29.147Z,1.20
2023-02-28T11:13:56.965Z,1.50
2023-02-28T11:16:33.211Z,1.20
2023-02-28T11:19:00.851Z,1.25
2023-02-28T11:21:33.434Z,1.23
2023-02-28T11:24:04.066Z,1.13
2023-02-28T11:26:43.404Z,1.13
2023-02-28T11:29:11.991Z,1.55
2023-02-28T11:31:38.365Z,1.20
2023-02-28T11:34:22.192Z,1.20
2023-02-28T11:36:49.046Z,1.33
2023-02-28T11:39:16.408Z,1.35
2023-02-28T11:41:54.674Z,1.00
2023-02-28T11:44:28.508Z,1.25
2023-02-28T11:47:01.824Z,1.30
2023-02-28T11:49:28.146Z,1.15
2023-02-28T11:51:58.175Z,1.30
2023-02-28T11:54:29.778Z,1.10
2023-02-28T11:56:59.800Z,1.10
2023-02-28T12:00:02.208Z,1.13
2023-02-28T12:02:56.226Z,1.40
2023-02-28T12:05:26.077Z,1.15
2023-02-28T12:08:07.447Z,1.60
2023-02-28T12:10:42.710Z,1.17
2023-02-28T12:13:32.422Z,1.30
2023-02-28T12:16:09.210Z,1.52
2023-02-28T12:18:35.912Z,1.30
2023-02-28T12:21:12.112Z,1.52
2023-02-28T12:23:53.809Z,1.30
2023-02-28T12:26:30.499Z,0.95
2023-02-28T12:29:20.433Z,1.08
2023-02-28T12:31:52.892Z,1.05
2023-02-28T12:34:21.973Z,1.17
2023-02-28T12:36:49.476Z,1.38
2023-02-28T12:39:19.453Z,1.00
2023-02-28T12:41:52.156Z,1.05
2023-02-28T12:44:20.233Z,0.80
2023-02-28T12:46:57.579Z,0.80
2023-02-28T12:49:47.379Z,0.68
2023-02-28T12:52:17.498Z,0.90
2023-02-28T12:54:50.473Z,1.00
2023-02-28T12:57:23.871Z,1.10
2023-02-28T12:59:53.408Z,1.13
2023-02-28T13:02:38.836Z,1.10
2023-02-28T13:05:23.872Z,1.13
2023-02-28T13:08:09.240Z,1.25
2023-02-28T13:10:43.371Z,0.80
2023-02-28T13:13:15.555Z,1.02
2023-02-28T13:15:46.172Z,1.10
2023-02-28T13:18:28.654Z,1.08
2023-02-28T13:20:55.069Z,1.10
2023-02-28T13:23:39.929Z,1.48
2023-02-28T13:26:06.405Z,1.20
2023-02-28T13:28:51.639Z,1.08
2023-02-28T13:31:19.589Z,0.82
2023-02-28T13:33:45.927Z,1.08
2023-02-28T13:36:32.773Z,0.85
2023-02-28T13:39:05.074Z,1.10
2023-02-28T13:41:31.739Z,1.02
2023-02-28T13:44:06.067Z,1.00
2023-02-28T13:46:37.137Z,0.98
2023-02-28T13:49:22.081Z,1.17
2023-02-28T13:51:49.933Z,1.27
2023-02-28T13:54:22.773Z,1.10
2023-02-28T13:56:53.857Z,1.30
2023-02-28T13:59:20.173Z,1.10
2023-02-28T14:01:52.553Z,1.48
2023-02-28T14:04:38.744Z,1.33
2023-02-28T14:07:05.394Z,1.08
2023-02-28T14:09:33.974Z,1.00
2023-02-28T14:12:18.955Z,1.00
2023-02-28T14:14:45.682Z,1.10
2023-02-28T14:17:16.522Z,1.10
2023-02-28T14:19:47.189Z,1.48
2023-02-28T14:22:21.121Z,1.33
2023-02-28T14:24:47.637Z,1.00
2023-02-28T14:27:14.058Z,0.98
2023-02-28T14:30:00.123Z,1.42
2023-02-28T14:32:41.601Z,1.45
2023-02-28T14:35:11.014Z,1.33
2023-02-28T14:37:40.228Z,1.08
2023-02-28T14:40:14.862Z,1.13
2023-02-28T14:42:47.714Z,1.20
2023-02-28T14:45:21.436Z,0.85
2023-02-28T14:47:48.188Z,1.77
2023-02-28T14:50:22.000Z,1.20
2023-02-28T14:52:48.875Z,1.00
2023-02-28T14:55:17.894Z,0.90
2023-02-28T14:57:54.883Z,1.00
2023-02-28T15:00:28.654Z,1.08
2023-02-28T15:02:55.761Z,1.38
2023-02-28T15:05:27.174Z,1.23
2023-02-28T15:08:05.225Z,1.40
2023-02-28T15:10:32.040Z,0.95
2023-02-28T15:13:02.593Z,1.30
2023-02-28T15:15:51.741Z,1.17
2023-02-28T15:18:30.357Z,1.05
2023-02-28T15:20:58.220Z,1.05
2023-02-28T15:23:24.696Z,1.00
2023-02-28T15:25:51.612Z,1.30
2023-02-28T15:28:20.331Z,1.17
2023-02-28T15:31:12.804Z,0.98
2023-02-28T15:33:52.716Z,0.90
2023-02-28T15:36:21.978Z,1.33
2023-02-28T15:38:51.416Z,1.15
2023-02-28T15:41:28.478Z,1.00
2023-02-28T15:44:13.576Z,1.65
2023-02-28T15:46:42.218Z,1.67
2023-02-28T15:49:18.173Z,1.30
2023-02-28T15:51:44.508Z,1.27
2023-02-28T15:54:16.029Z,1.17
2023-02-28T15:56:51.099Z,1.20
2023-02-28T15:59:19.395Z,1.27
2023-02-28T16:01:46.048Z,1.23
2023-02-28T16:04:16.407Z,0.95
2023-02-28T16:06:44.134Z,1.30
2023-02-28T16:09:11.983Z,1.38
2023-02-28T16:11:41.942Z,1.15
2023-02-28T16:14:13.066Z,1.20
2023-02-28T16:16:43.151Z,1.00
2023-02-28T16:19:09.549Z,1.42
2023-02-28T16:21:35.904Z,1.30
2023-02-28T16:24:02.281Z,1.02
2023-02-28T16:26:29.286Z,1.17
2023-02-28T16:28:55.953Z,1.20
2023-02-28T16:31:22.303Z,1.30
2023-02-28T16:33:49.061Z,1.33
2023-02-28T16:36:20.396Z,1.50
2023-02-28T16:38:46.796Z,1.58
2023-02-28T16:41:18.164Z,1.35
2023-02-28T16:43:45.363Z,1.20
2023-02-28T16:46:12.222Z,1.33
2023-02-28T16:48:38.662Z,1.40
2023-02-28T16:51:05.433Z,1.73
2023-02-28T16:53:32.434Z,1.25
2023-02-28T16:55:58.926Z,1.30
2023-02-28T16:58:26.724Z,1.38
2023-02-28T17:00:53.600Z,1.30
2023-02-28T17:03:32.065Z,1.27
2023-02-28T17:05:59.375Z,1.50
2023-02-28T17:08:25.766Z,1.15
2023-02-28T17:10:52.200Z,1.02
2023-02-28T17:13:18.556Z,1.33
2023-02-28T17:15:47.306Z,1.50
2023-02-28T17:18:15.859Z,1.50
2023-02-28T17:20:43.253Z,1.25
2023-02-28T17:23:09.576Z,1.33
2023-02-28T17:25:35.988Z,1.30
2023-02-28T17:28:02.450Z,1.35
2023-02-28T17:30:29.347Z,1.40
2023-02-28T17:32:56.504Z,1.25
2023-02-28T17:35:23.433Z,1.40
2023-02-28T17:37:50.325Z,1.52
2023-02-28T17:40:17.826Z,1.20
2023-02-28T17:42:44.986Z,1.42
2023-02-28T17:45:11.613Z,1.33
2023-02-28T17:47:38.067Z,1.83
2023-02-28T17:50:04.914Z,1.58
2023-02-28T17:52:31.802Z,1.88
2023-02-28T17:54:58.188Z,1.50
2023-02-28T17:57:24.599Z,1.77
2023-02-28T17:59:51.005Z,1.35
2023-02-28T18:02:17.894Z,1.60
2023-02-28T18:04:44.224Z,1.45
2023-02-28T18:07:12.100Z,1.55
2023-02-28T18:09:38.432Z,1.35
2023-02-28T18:12:05.071Z,1.58
2023-02-28T18:14:31.476Z,1.67
2023-02-28T18:16:58.224Z,1.20
2023-02-28T18:19:25.078Z,1.45
2023-02-28T18:21:52.941Z,2.15
2023-02-28T18:24:20.457Z,1.90
2023-02-28T18:26:46.805Z,1.60
2023-02-28T18:29:17.069Z,1.40
2023-02-28T18:31:43.558Z,2.00
2023-02-28T18:34:09.929Z,1.77
2023-02-28T18:36:36.284Z,1.95
2023-02-28T18:39:02.824Z,1.83
2023-02-28T18:41:29.553Z,2.30
2023-02-28T18:43:55.871Z,2.28
2023-02-28T18:46:22.346Z,1.35
2023-02-28T18:48:48.773Z,1.55
2023-02-28T18:51:16.655Z,2.00
2023-02-28T18:53:43.684Z,1.90
2023-02-28T18:56:11.570Z,2.20
2023-02-28T18:58:37.960Z,2.00
2023-02-28T19:01:05.251Z,2.05
2023-02-28T19:03:31.680Z,2.15
2023-02-28T19:05:58.864Z,1.85
2023-02-28T19:08:25.418Z,2.50
2023-02-28T19:10:51.836Z,2.50
2023-02-28T19:13:18.230Z,2.17
2023-02-28T19:15:44.620Z,2.25
2023-02-28T19:18:11.035Z,2.25
2023-02-28T19:20:37.381Z,2.42
2023-02-28T19:23:03.826Z,2.10
2023-02-28T19:25:30.289Z,2.10
2023-02-28T19:27:57.464Z,2.17
2023-02-28T19:30:23.874Z,2.28
2023-02-28T19:32:50.522Z,2.13
2023-02-28T19:35:16.911Z,2.30
2023-02-28T19:37:43.308Z,2.38
2023-02-28T19:40:11.044Z,2.17
2023-02-28T19:42:37.397Z,2.10
2023-02-28T19:45:05.476Z,2.95
2023-02-28T19:47:31.859Z,1.90
2023-02-28T19:49:58.208Z,2.45
2023-02-28T19:52:25.187Z,1.83
2023-02-28T19:54:51.797Z,2.45
2023-02-28T19:57:18.422Z,2.63
2023-02-28T19:59:44.756Z,2.50
2023-02-28T20:02:15.246Z,2.58
2023-02-28T20:04:41.818Z,2.90
2023-02-28T20:07:08.220Z,2.33
2023-02-28T20:09:34.959Z,1.92
2023-02-28T20:12:01.601Z,2.40
2023-02-28T20:14:28.037Z,3.08
2023-02-28T20:16:56.552Z,2.50
2023-02-28T20:19:24.245Z,2.97
2023-02-28T20:21:50.552Z,2.50
2023-02-28T20:24:17.034Z,2.55
2023-02-28T20:26:43.568Z,2.20
2023-02-28T20:29:10.075Z,2.28
2023-02-28T20:31:39.793Z,2.70
2023-02-28T20:34:06.245Z,2.88
2023-02-28T20:36:32.865Z,2.97
2023-02-28T20:39:00.521Z,3.15
2023-02-28T20:41:27.409Z,3.45
2023-02-28T20:43:54.935Z,3.80
2023-02-28T20:46:21.454Z,3.50
2023-02-28T20:48:47.920Z,3.35
2023-02-28T20:51:14.295Z,3.60
2023-02-28T20:53:40.670Z,3.80
2023-02-28T20:56:09.024Z,3.00
2023-02-28T20:58:37.077Z,3.80
2023-02-28T21:01:17.453Z,3.80
2023-02-28T21:03:47.799Z,3.50
2023-02-28T21:06:15.442Z,4.18
2023-02-28T21:08:42.141Z,3.55
2023-02-28T21:11:10.042Z,3.70
2023-02-28T21:13:37.278Z,3.53
2023-02-28T21:16:05.119Z,4.10
2023-02-28T21:18:31.961Z,3.65
2023-02-28T21:21:05.162Z,3.88
2023-02-28T21:23:31.930Z,4.07
2023-02-28T21:26:02.095Z,4.53
2023-02-28T21:28:28.480Z,4.10
2023-02-28T21:30:55.014Z,4.55
2023-02-28T21:33:21.427Z,4.13
2023-02-28T21:35:47.832Z,4.07
2023-02-28T21:38:14.141Z,4.55
2023-02-28T21:40:40.431Z,4.00
2023-02-28T21:43:06.793Z,3.90
2023-02-28T21:45:34.107Z,3.58
2023-02-28T21:48:00.592Z,3.17
2023-02-28T21:50:28.117Z,3.95
2023-02-28T21:52:55.116Z,4.10
2023-02-28T21:55:21.498Z,3.90
2023-02-28T21:57:47.840Z,4.25
2023-02-28T22:00:16.936Z,4.28
2023-02-28T22:02:43.376Z,4.15
2023-02-28T22:05:09.959Z,5.00
2023-02-28T22:07:36.587Z,4.60
2023-02-28T22:10:03.160Z,4.63
2023-02-28T22:12:30.451Z,3.83
2023-02-28T22:14:57.008Z,4.35
2023-02-28T22:17:23.422Z,4.13
2023-02-28T22:19:49.851Z,4.00
2023-02-28T22:22:16.496Z,4.68
2023-02-28T22:24:43.004Z,5.10
2023-02-28T22:27:09.701Z,4.55
2023-02-28T22:29:36.041Z,4.22
2023-02-28T22:32:02.546Z,4.47
2023-02-28T22:34:28.951Z,4.47
2023-02-28T22:36:55.509Z,4.03
2023-02-28T22:39:21.927Z,4.47
2023-02-28T22:41:48.404Z,4.47
2023-02-28T22:44:16.417Z,4.63
2023-02-28T22:46:42.822Z,4.22
2023-02-28T22:49:09.334Z,5.18
2023-02-28T22:51:35.789Z,3.78
2023-02-28T22:54:02.252Z,4.22
2023-02-28T22:56:29.875Z,4.07
2023-02-28T22:58:57.221Z,3.78
2023-02-28T23:01:25.038Z,4.90
2023-02-28T23:03:51.723Z,4.57
2023-02-28T23:06:26.134Z,4.93
2023-02-28T23:08:53.460Z,4.60
2023-02-28T23:11:21.364Z,4.30
2023-02-28T23:13:58.450Z,4.65
2023-02-28T23:16:45.212Z,4.18
2023-02-28T23:19:13.126Z,3.55
2023-02-28T23:21:39.592Z,3.45
2023-02-28T23:24:10.365Z,4.47
2023-02-28T23:26:38.177Z,3.85
2023-02-28T23:29:05.040Z,3.53
2023-02-28T23:31:31.496Z,4.18
2023-02-28T23:33:58.237Z,3.53
2023-02-28T23:36:24.668Z,3.75
2023-02-28T23:38:52.578Z,3.20
2023-02-28T23:41:20.594Z,2.95
2023-02-28T23:43:47.663Z,2.78
2023-02-28T23:46:14.847Z,4.22
2023-02-28T23:48:41.533Z,4.57
2023-02-28T23:51:09.837Z,3.53
2023-02-28T23:53:40.105Z,2.58
2023-02-28T23:56:07.718Z,2.78
2023-02-28T23:58:34.253Z,4.47
